Time;durP1;ratioP1;P1;durP2;ratioP2;P2;SDS_P1;SDS_P2;PMS_P1;PMS_P2;Temp;Humidity;BMP_temperature;BMP_pressure;BME280_temperature;BME280_humidity;BME280_pressure;Samples;Min_cycle;Max_cycle;Signal;HPM_P1;HPM_P2
2021/10/23 00:00:05;;;;;;;;;;;;;;;;;;347049;28;873;-74
2021/10/23 00:00:57;;;;;;;;;;;;;;;;;;347104;28;886;-77
2021/10/23 00:01:07;;;;;;;;;;;;;;;;;;347976;28;854;-77
2021/10/23 00:01:18;;;;;;;;;;;;;;;;;;347103;28;1044;-76
2021/10/23 00:01:43;;;;;;;;;;;;;;;;;;345407;28;823;-77
2021/10/23 00:01:54;;;;;;;;;;;;;;;;;;344466;28;897;-77
2021/10/23 00:02:23;;;;;;;;;;;;;;;;;;345833;28;664;-77
2021/10/23 00:02:33;;;;;;;;;;;;;;;;;;345702;28;899;-77
2021/10/23 00:02:43;;;;;;;;;;;;;;;;;;344360;28;794;-76
2021/10/23 00:02:54;;;;;;;;;;;;;;;;;;345738;28;925;-78
2021/10/23 00:03:04;;;;;;;;;;;;;;;;;;345715;28;933;-77
2021/10/23 00:03:14;;;;;;;;;;;;;;;;;;345775;28;929;-77
2021/10/23 00:03:25;;;;;;;;;;;;;;;;;;347127;28;984;-76
2021/10/23 00:03:41;;;;;;;;;;;;;;;;;;344397;28;930;-77
2021/10/23 00:03:51;;;;;;;;;;;;;;;;;;344245;28;941;-76
2021/10/23 00:04:17;;;;;;;;;;;;;;;;;;344420;28;901;-75
2021/10/23 00:04:27;;;;;;;;;;;;;;;;;;347078;28;779;-77
2021/10/23 00:04:53;;;;;;;;;;;;;;;;;;346974;28;1565;-76
2021/10/23 00:05:04;;;;;;;;;;;;;;;;;;347139;28;1029;-76
2021/10/23 00:05:15;;;;;;;;;;;;;;;;;;347106;28;790;-76
2021/10/23 00:05:25;;;;;;;;;;;;;;;;;;347113;28;798;-76
2021/10/23 00:05:51;;;;;;;;;;;;;;;;;;345689;28;1160;-76
2021/10/23 00:06:01;;;;;;;;;;;;;;;;;;342924;28;1001;-76
2021/10/23 00:06:12;;;;;;;;;;;;;;;;;;343002;28;1318;-76
2021/10/23 00:06:22;;;;;;;;;;;;;;;;;;345542;28;1439;-76
2021/10/23 00:06:33;;;;;;;;;;;;;;;;;;344472;28;858;-76
2021/10/23 00:06:43;;;;;;;;;;;;;;;;;;345549;28;1517;-75
2021/10/23 00:06:53;;;;;;;;;;;;;;;;;;345510;28;1496;-78
2021/10/23 00:07:04;;;;;;;;;;;;;;;;;;344293;28;1508;-75
2021/10/23 00:07:14;;;;;;;;;;;;;;;;;;344422;28;989;-75
2021/10/23 00:07:24;;;;;;;;;;;;;;;;;;343151;28;1465;-75
2021/10/23 00:08:16;;;;;;;;;;;;;;;;;;342999;28;992;-76
2021/10/23 00:08:26;;;;;;;;;;;;;;;;;;343017;28;941;-76
2021/10/23 00:09:47;;;;;;;;;;;;;;;;;;347100;28;933;-76
2021/10/23 00:09:58;;;;;;;;;;;;;;;;;;346994;28;826;-76
2021/10/23 00:10:08;;;;;;;;;;;;;;;;;;345633;28;1425;-76
2021/10/23 00:10:34;;;;;;;;;;;;;;;;;;343034;28;1557;-77
2021/10/23 00:10:45;;;;;;;;;;;;;;;;;;345707;28;921;-76
2021/10/23 00:10:55;;;;;;;;;;;;;;;;;;345714;28;917;-76
2021/10/23 00:11:05;;;;;;;;;;;;;;;;;;345660;28;1511;-76
2021/10/23 00:11:16;;;;;;;;;;;;;;;;;;344350;28;847;-76
2021/10/23 00:11:26;;;;;;;;;;;;;;;;;;345566;28;1463;-74
2021/10/23 00:11:36;;;;;;;;;;;;;;;;;;344379;28;960;-74
2021/10/23 00:11:47;;;;;;;;;;;;;;;;;;344385;28;806;-76
2021/10/23 00:11:57;;;;;;;;;;;;;;;;;;347096;28;976;-77
2021/10/23 00:12:07;;;;;;;;;;;;;;;;;;347016;28;1586;-77
2021/10/23 00:12:18;;;;;;;;;;;;;;;;;;345765;28;885;-76
2021/10/23 00:12:29;;;;;;;;;;;;;;;;;;345710;28;932;-76
2021/10/23 00:12:39;;;;;;;;;;;;;;;;;;346941;28;1275;-75
2021/10/23 00:12:49;;;;;;;;;;;;;;;;;;347048;28;805;-76
2021/10/23 00:13:00;;;;;;;;;;;;;;;;;;347025;28;1906;-76
2021/10/23 00:13:10;;;;;;;;;;;;;;;;;;344430;28;1539;-76
2021/10/23 00:13:36;;;;;;;;;;;;;;;;;;346852;28;1467;-75
2021/10/23 00:13:46;;;;;;;;;;;;;;;;;;345725;28;894;-75
2021/10/23 00:13:56;;;;;;;;;;;;;;;;;;344398;28;1040;-76
2021/10/23 00:14:19;;;;;;;;;;;;;;;;;;345556;28;1598;-76
2021/10/23 00:14:44;;;;;;;;;;;;;;;;;;343023;28;866;-76
2021/10/23 00:14:55;;;;;;;;;;;;;;;;;;342872;28;930;-77
2021/10/23 00:15:05;;;;;;;;;;;;;;;;;;344295;28;1039;-76
2021/10/23 00:15:16;;;;;;;;;;;;;;;;;;345588;28;1300;-77
2021/10/23 00:15:26;;;;;;;;;;;;;;;;;;347034;28;1001;-77
2021/10/23 00:15:36;;;;;;;;;;;;;;;;;;346846;28;1494;-75
2021/10/23 00:16:13;;;;;;;;;;;;;;;;;;345642;28;941;-76
2021/10/23 00:16:23;;;;;;;;;;;;;;;;;;345752;28;981;-78
2021/10/23 00:16:34;;;;;;;;;;;;;;;;;;344341;28;906;-76
2021/10/23 00:16:44;;;;;;;;;;;;;;;;;;344354;28;873;-75
2021/10/23 00:16:54;;;;;;;;;;;;;;;;;;341736;29;803;-75
2021/10/23 00:17:05;;;;;;;;;;;;;;;;;;341674;29;1044;-74
2021/10/23 00:17:15;;;;;;;;;;;;;;;;;;344281;28;921;-75
2021/10/23 00:17:47;;;;;;;;;;;;;;;;;;345790;28;644;-76
2021/10/23 00:17:57;;;;;;;;;;;;;;;;;;344318;28;1474;-77
2021/10/23 00:18:07;;;;;;;;;;;;;;;;;;344381;28;858;-77
2021/10/23 00:18:18;;;;;;;;;;;;;;;;;;345748;28;898;-77
2021/10/23 00:18:28;;;;;;;;;;;;;;;;;;345711;28;1009;-75
2021/10/23 00:19:20;;;;;;;;;;;;;;;;;;344295;28;961;-75
2021/10/23 00:19:36;;;;;;;;;;;;;;;;;;345695;28;874;-75
2021/10/23 00:19:46;;;;;;;;;;;;;;;;;;345766;28;857;-74
2021/10/23 00:20:01;;;;;;;;;;;;;;;;;;346670;28;1032;-76
2021/10/23 00:20:11;;;;;;;;;;;;;;;;;;345880;28;1614;-77
2021/10/23 00:20:22;;;;;;;;;;;;;;;;;;345777;28;885;-76
2021/10/23 00:21:02;;;;;;;;;;;;;;;;;;341614;29;1042;-76
2021/10/23 00:21:27;;;;;;;;;;;;;;;;;;344091;28;925;-76
2021/10/23 00:21:53;;;;;;;;;;;;;;;;;;344305;28;787;-76
2021/10/23 00:22:03;;;;;;;;;;;;;;;;;;344453;28;845;-75
2021/10/23 00:22:29;;;;;;;;;;;;;;;;;;344353;28;1447;-74
2021/10/23 00:22:55;;;;;;;;;;;;;;;;;;345796;28;842;-77
2021/10/23 00:23:06;;;;;;;;;;;;;;;;;;344547;28;946;-76
2021/10/23 00:23:49;;;;;;;;;;;;;;;;;;346928;28;932;-75
2021/10/23 00:24:15;;;;;;;;;;;;;;;;;;344290;28;1461;-76
2021/10/23 00:24:25;;;;;;;;;;;;;;;;;;345728;28;826;-77
2021/10/23 00:24:36;;;;;;;;;;;;;;;;;;341671;28;1367;-75
2021/10/23 00:24:46;;;;;;;;;;;;;;;;;;344419;28;861;-76
2021/10/23 00:25:12;;;;;;;;;;;;;;;;;;344284;28;852;-76
2021/10/23 00:25:22;;;;;;;;;;;;;;;;;;345719;28;854;-74
2021/10/23 00:25:33;;;;;;;;;;;;;;;;;;344230;28;1334;-76
2021/10/23 00:25:58;;;;;;;;;;;;;;;;;;344361;28;1040;-77
2021/10/23 00:26:09;;;;;;;;;;;;;;;;;;344309;28;883;-76
2021/10/23 00:26:19;;;;;;;;;;;;;;;;;;346826;28;1426;-77
2021/10/23 00:26:29;;;;;;;;;;;;;;;;;;346775;28;858;-77
2021/10/23 00:26:40;;;;;;;;;;;;;;;;;;345810;28;1567;-77
2021/10/23 00:26:50;;;;;;;;;;;;;;;;;;344426;28;849;-76
2021/10/23 00:27:01;;;;;;;;;;;;;;;;;;349621;28;1434;-77
2021/10/23 00:27:11;;;;;;;;;;;;;;;;;;347116;28;968;-76
2021/10/23 00:27:21;;;;;;;;;;;;;;;;;;347148;28;1036;-74
2021/10/23 00:27:32;;;;;;;;;;;;;;;;;;346990;28;1228;-77
2021/10/23 00:27:42;;;;;;;;;;;;;;;;;;347038;28;1446;-76
2021/10/23 00:28:08;;;;;;;;;;;;;;;;;;347079;28;996;-74
2021/10/23 00:28:19;;;;;;;;;;;;;;;;;;345578;28;1008;-75
2021/10/23 00:28:29;;;;;;;;;;;;;;;;;;345674;28;854;-76
2021/10/23 00:28:40;;;;;;;;;;;;;;;;;;344308;28;1186;-77
2021/10/23 00:28:59;;;;;;;;;;;;;;;;;;346968;28;1561;-76
2021/10/23 00:29:10;;;;;;;;;;;;;;;;;;347026;28;1039;-77
2021/10/23 00:29:20;;;;;;;;;;;;;;;;;;345794;28;842;-76
2021/10/23 00:29:30;;;;;;;;;;;;;;;;;;347094;28;977;-77
2021/10/23 00:29:41;;;;;;;;;;;;;;;;;;347081;28;972;-77
2021/10/23 00:30:17;;;;;;;;;;;;;;;;;;344313;28;857;-75
2021/10/23 00:30:28;;;;;;;;;;;;;;;;;;344282;28;837;-76
2021/10/23 00:30:53;;;;;;;;;;;;;;;;;;344237;28;1272;-76
2021/10/23 00:31:04;;;;;;;;;;;;;;;;;;344382;28;937;-76
2021/10/23 00:31:15;;;;;;;;;;;;;;;;;;343031;28;969;-77
2021/10/23 00:31:25;;;;;;;;;;;;;;;;;;344209;28;1455;-76
2021/10/23 00:31:35;;;;;;;;;;;;;;;;;;344349;28;937;-77
2021/10/23 00:32:04;;;;;;;;;;;;;;;;;;343125;28;681;-76
2021/10/23 00:32:14;;;;;;;;;;;;;;;;;;342878;28;1366;-77
2021/10/23 00:32:25;;;;;;;;;;;;;;;;;;345779;28;914;-76
2021/10/23 00:32:37;;;;;;;;;;;;;;;;;;345728;28;980;-77
2021/10/23 00:33:03;;;;;;;;;;;;;;;;;;345661;28;977;-77
2021/10/23 00:33:13;;;;;;;;;;;;;;;;;;345731;28;882;-76
2021/10/23 00:33:24;;;;;;;;;;;;;;;;;;345714;28;868;-76
2021/10/23 00:33:34;;;;;;;;;;;;;;;;;;344350;28;894;-76
2021/10/23 00:33:48;;;;;;;;;;;;;;;;;;344379;28;842;-77
2021/10/23 00:34:14;;;;;;;;;;;;;;;;;;345509;28;1448;-76
2021/10/23 00:34:24;;;;;;;;;;;;;;;;;;344709;28;925;-77
2021/10/23 00:34:34;;;;;;;;;;;;;;;;;;346999;28;953;-76
2021/10/23 00:34:45;;;;;;;;;;;;;;;;;;347082;28;940;-76
2021/10/23 00:34:55;;;;;;;;;;;;;;;;;;345661;28;851;-78
2021/10/23 00:35:12;;;;;;;;;;;;;;;;;;345659;28;1587;-77
2021/10/23 00:35:48;;;;;;;;;;;;;;;;;;344388;28;945;-77
2021/10/23 00:36:01;;;;;;;;;;;;;;;;;;344296;28;1270;-77
2021/10/23 00:36:27;;;;;;;;;;;;;;;;;;345603;28;1123;-77
2021/10/23 00:36:53;;;;;;;;;;;;;;;;;;343014;28;835;-76
2021/10/23 00:37:03;;;;;;;;;;;;;;;;;;344220;28;1447;-77
2021/10/23 00:37:17;;;;;;;;;;;;;;;;;;346748;28;1312;-76
2021/10/23 00:37:27;;;;;;;;;;;;;;;;;;346680;28;961;-76
2021/10/23 00:37:37;;;;;;;;;;;;;;;;;;345710;28;917;-76
2021/10/23 00:37:48;;;;;;;;;;;;;;;;;;345723;28;976;-77
2021/10/23 00:38:00;;;;;;;;;;;;;;;;;;345523;28;1434;-76
2021/10/23 00:38:11;;;;;;;;;;;;;;;;;;345708;28;972;-77
2021/10/23 00:38:37;;;;;;;;;;;;;;;;;;345760;28;1640;-77
2021/10/23 00:38:47;;;;;;;;;;;;;;;;;;345684;28;1040;-76
2021/10/23 00:38:58;;;;;;;;;;;;;;;;;;345698;28;1044;-76
2021/10/23 00:39:53;;;;;;;;;;;;;;;;;;343013;28;1070;-77
2021/10/23 00:40:20;;;;;;;;;;;;;;;;;;346981;28;1431;-76
2021/10/23 00:40:30;;;;;;;;;;;;;;;;;;348296;28;1067;-77
2021/10/23 00:40:40;;;;;;;;;;;;;;;;;;347092;28;976;-77
2021/10/23 00:40:51;;;;;;;;;;;;;;;;;;346888;28;921;-77
2021/10/23 00:41:04;;;;;;;;;;;;;;;;;;347305;28;842;-77
2021/10/23 00:41:20;;;;;;;;;;;;;;;;;;348708;28;878;-77
2021/10/23 00:41:30;;;;;;;;;;;;;;;;;;348660;28;977;-76
2021/10/23 00:41:41;;;;;;;;;;;;;;;;;;347313;28;798;-77
2021/10/23 00:41:52;;;;;;;;;;;;;;;;;;347330;28;833;-74
2021/10/23 00:42:02;;;;;;;;;;;;;;;;;;347380;28;802;-75
2021/10/23 00:42:21;;;;;;;;;;;;;;;;;;347131;28;1466;-76
2021/10/23 00:42:34;;;;;;;;;;;;;;;;;;347376;28;937;-77
2021/10/23 00:42:44;;;;;;;;;;;;;;;;;;345938;28;976;-76
2021/10/23 00:42:54;;;;;;;;;;;;;;;;;;345862;28;1451;-76
2021/10/23 00:43:05;;;;;;;;;;;;;;;;;;345962;28;857;-77
2021/10/23 00:43:15;;;;;;;;;;;;;;;;;;345969;28;834;-75
2021/10/23 00:43:25;;;;;;;;;;;;;;;;;;345938;28;949;-76
2021/10/23 00:43:37;;;;;;;;;;;;;;;;;;345993;28;965;-75
2021/10/23 00:43:47;;;;;;;;;;;;;;;;;;348663;28;794;-76
2021/10/23 00:44:41;;;;;;;;;;;;;;;;;;347339;28;901;-74
2021/10/23 00:44:51;;;;;;;;;;;;;;;;;;344621;28;1360;-77
2021/10/23 00:45:02;;;;;;;;;;;;;;;;;;345895;28;1286;-78
2021/10/23 00:45:50;;;;;;;;;;;;;;;;;;345995;28;859;-77
2021/10/23 00:46:26;;;;;;;;;;;;;;;;;;348605;28;1171;-76
2021/10/23 00:46:37;;;;;;;;;;;;;;;;;;347368;28;909;-76
2021/10/23 00:46:50;;;;;;;;;;;;;;;;;;347321;28;1327;-77
2021/10/23 00:47:03;;;;;;;;;;;;;;;;;;347228;28;1295;-76
2021/10/23 00:47:17;;;;;;;;;;;;;;;;;;347346;28;1255;-75
2021/10/23 00:47:42;;;;;;;;;;;;;;;;;;347318;28;1051;-75
2021/10/23 00:47:53;;;;;;;;;;;;;;;;;;347339;28;838;-78
2021/10/23 00:48:03;;;;;;;;;;;;;;;;;;344631;28;861;-76
2021/10/23 00:48:29;;;;;;;;;;;;;;;;;;347211;28;862;-78
2021/10/23 00:49:21;;;;;;;;;;;;;;;;;;345971;28;810;-79
2021/10/23 00:49:31;;;;;;;;;;;;;;;;;;345966;28;988;-79
2021/10/23 00:49:42;;;;;;;;;;;;;;;;;;345905;28;1280;-80
2021/10/23 00:49:52;;;;;;;;;;;;;;;;;;345989;28;809;-79
2021/10/23 00:50:03;;;;;;;;;;;;;;;;;;344663;28;902;-77
2021/10/23 00:50:29;;;;;;;;;;;;;;;;;;344625;28;859;-79
2021/10/23 00:50:39;;;;;;;;;;;;;;;;;;344535;28;819;-79
2021/10/23 00:50:50;;;;;;;;;;;;;;;;;;344577;28;1067;-77
2021/10/23 00:51:00;;;;;;;;;;;;;;;;;;345746;28;1604;-77
2021/10/23 00:51:11;;;;;;;;;;;;;;;;;;344652;28;930;-77
2021/10/23 00:51:21;;;;;;;;;;;;;;;;;;345822;28;1425;-77
2021/10/23 00:51:31;;;;;;;;;;;;;;;;;;345892;28;1355;-79
2021/10/23 00:51:42;;;;;;;;;;;;;;;;;;345732;28;1385;-79
2021/10/23 00:51:52;;;;;;;;;;;;;;;;;;345964;28;1052;-80
2021/10/23 00:52:03;;;;;;;;;;;;;;;;;;348668;28;1304;-79
2021/10/23 00:52:13;;;;;;;;;;;;;;;;;;348718;28;877;-79
2021/10/23 00:52:24;;;;;;;;;;;;;;;;;;345954;28;925;-79
2021/10/23 00:52:34;;;;;;;;;;;;;;;;;;345997;28;830;-79
2021/10/23 00:52:44;;;;;;;;;;;;;;;;;;345744;28;1133;-79
2021/10/23 00:52:55;;;;;;;;;;;;;;;;;;345866;28;1930;-79
2021/10/23 00:53:05;;;;;;;;;;;;;;;;;;343354;28;1494;-78
2021/10/23 00:53:15;;;;;;;;;;;;;;;;;;346024;28;818;-80
2021/10/23 00:53:41;;;;;;;;;;;;;;;;;;345872;28;1179;-79
2021/10/23 00:53:52;;;;;;;;;;;;;;;;;;345990;28;837;-79
2021/10/23 00:54:02;;;;;;;;;;;;;;;;;;346000;28;872;-79
2021/10/23 00:54:12;;;;;;;;;;;;;;;;;;345974;28;951;-80
2021/10/23 00:54:24;;;;;;;;;;;;;;;;;;347380;28;971;-79
2021/10/23 00:54:34;;;;;;;;;;;;;;;;;;345978;28;943;-79
2021/10/23 00:54:45;;;;;;;;;;;;;;;;;;347242;28;1285;-79
2021/10/23 00:54:55;;;;;;;;;;;;;;;;;;347277;28;892;-80
2021/10/23 00:55:06;;;;;;;;;;;;;;;;;;347372;28;821;-79
2021/10/23 00:55:16;;;;;;;;;;;;;;;;;;347376;28;1015;-78
2021/10/23 00:55:42;;;;;;;;;;;;;;;;;;346000;28;984;-79
2021/10/23 00:55:55;;;;;;;;;;;;;;;;;;344583;28;846;-79
2021/10/23 00:56:05;;;;;;;;;;;;;;;;;;345963;28;841;-78
2021/10/23 00:56:16;;;;;;;;;;;;;;;;;;345884;28;1612;-79
2021/10/23 00:56:26;;;;;;;;;;;;;;;;;;345924;28;913;-78
2021/10/23 00:56:36;;;;;;;;;;;;;;;;;;347356;28;904;-78
2021/10/23 00:56:47;;;;;;;;;;;;;;;;;;348644;28;833;-78
2021/10/23 00:56:57;;;;;;;;;;;;;;;;;;346026;28;1715;-78
2021/10/23 00:57:24;;;;;;;;;;;;;;;;;;348444;28;1510;-79
2021/10/23 00:57:34;;;;;;;;;;;;;;;;;;347383;28;1616;-79
2021/10/23 00:58:26;;;;;;;;;;;;;;;;;;345949;28;941;-80
2021/10/23 00:58:38;;;;;;;;;;;;;;;;;;345854;28;1277;-79
2021/10/23 00:58:48;;;;;;;;;;;;;;;;;;343231;28;1294;-79
2021/10/23 00:58:59;;;;;;;;;;;;;;;;;;347327;28;786;-79
2021/10/23 00:59:09;;;;;;;;;;;;;;;;;;347149;28;1442;-79
2021/10/23 00:59:34;;;;;;;;;;;;;;;;;;345931;28;778;-79
2021/10/23 00:59:45;;;;;;;;;;;;;;;;;;345858;28;1266;-80
2021/10/23 00:59:55;;;;;;;;;;;;;;;;;;345845;28;1447;-78
2021/10/23 01:00:06;;;;;;;;;;;;;;;;;;347231;28;1187;-78
2021/10/23 01:00:16;;;;;;;;;;;;;;;;;;346005;28;778;-77
2021/10/23 01:00:26;;;;;;;;;;;;;;;;;;345940;28;984;-79
2021/10/23 01:01:03;;;;;;;;;;;;;;;;;;343252;28;996;-78
2021/10/23 01:01:13;;;;;;;;;;;;;;;;;;345931;28;929;-79
2021/10/23 01:01:26;;;;;;;;;;;;;;;;;;347389;28;805;-79
2021/10/23 01:01:37;;;;;;;;;;;;;;;;;;348629;28;937;-79
2021/10/23 01:01:50;;;;;;;;;;;;;;;;;;348752;28;834;-80
2021/10/23 01:02:00;;;;;;;;;;;;;;;;;;348720;28;983;-79
2021/10/23 01:02:11;;;;;;;;;;;;;;;;;;345904;28;1070;-79
2021/10/23 01:02:21;;;;;;;;;;;;;;;;;;345863;28;1321;-79
2021/10/23 01:02:47;;;;;;;;;;;;;;;;;;347261;28;778;-79
2021/10/23 01:02:57;;;;;;;;;;;;;;;;;;347343;28;901;-80
2021/10/23 01:03:07;;;;;;;;;;;;;;;;;;345975;28;1007;-80
2021/10/23 01:03:33;;;;;;;;;;;;;;;;;;345976;28;989;-79
2021/10/23 01:03:59;;;;;;;;;;;;;;;;;;345866;28;842;-77
2021/10/23 01:04:10;;;;;;;;;;;;;;;;;;347322;28;1016;-76
2021/10/23 01:04:23;;;;;;;;;;;;;;;;;;344617;28;1004;-77
2021/10/23 01:04:34;;;;;;;;;;;;;;;;;;345909;28;940;-80
2021/10/23 01:05:00;;;;;;;;;;;;;;;;;;344667;28;984;-80
2021/10/23 01:05:37;;;;;;;;;;;;;;;;;;345960;28;977;-79
2021/10/23 01:05:47;;;;;;;;;;;;;;;;;;345945;28;802;-79
2021/10/23 01:05:58;;;;;;;;;;;;;;;;;;347109;28;912;-79
2021/10/23 01:06:08;;;;;;;;;;;;;;;;;;345792;28;1290;-79
2021/10/23 01:07:01;;;;;;;;;;;;;;;;;;344622;28;795;-77
2021/10/23 01:07:40;;;;;;;;;;;;;;;;;;344603;28;838;-77
2021/10/23 01:07:59;;;;;;;;;;;;;;;;;;346005;28;850;-77
2021/10/23 01:08:28;;;;;;;;;;;;;;;;;;344606;28;664;-74
2021/10/23 01:08:39;;;;;;;;;;;;;;;;;;344574;28;1187;-76
2021/10/23 01:09:05;;;;;;;;;;;;;;;;;;344595;28;878;-76
2021/10/23 01:09:15;;;;;;;;;;;;;;;;;;344799;28;949;-77
2021/10/23 01:09:25;;;;;;;;;;;;;;;;;;347355;28;806;-76
2021/10/23 01:10:05;;;;;;;;;;;;;;;;;;346343;28;957;-78
2021/10/23 01:10:51;;;;;;;;;;;;;;;;;;347484;28;885;-79
2021/10/23 01:11:02;;;;;;;;;;;;;;;;;;347171;28;1172;-79
2021/10/23 01:11:12;;;;;;;;;;;;;;;;;;347278;28;802;-78
2021/10/23 01:11:38;;;;;;;;;;;;;;;;;;343094;28;1418;-79
2021/10/23 01:11:48;;;;;;;;;;;;;;;;;;345972;28;799;-78
2021/10/23 01:11:59;;;;;;;;;;;;;;;;;;344591;28;989;-80
2021/10/23 01:12:10;;;;;;;;;;;;;;;;;;344610;28;874;-80
2021/10/23 01:12:20;;;;;;;;;;;;;;;;;;345795;28;1435;-77
2021/10/23 01:12:57;;;;;;;;;;;;;;;;;;345898;28;1914;-80
2021/10/23 01:13:07;;;;;;;;;;;;;;;;;;345816;28;1470;-77
2021/10/23 01:13:17;;;;;;;;;;;;;;;;;;345979;28;972;-78
2021/10/23 01:13:54;;;;;;;;;;;;;;;;;;344606;28;842;-79
2021/10/23 01:14:04;;;;;;;;;;;;;;;;;;344524;28;1386;-78
2021/10/23 01:14:16;;;;;;;;;;;;;;;;;;344500;28;1227;-79
2021/10/23 01:14:26;;;;;;;;;;;;;;;;;;344631;28;886;-79
2021/10/23 01:14:37;;;;;;;;;;;;;;;;;;344601;28;814;-80
2021/10/23 01:15:03;;;;;;;;;;;;;;;;;;345991;28;917;-80
2021/10/23 01:15:14;;;;;;;;;;;;;;;;;;345948;28;834;-79
2021/10/23 01:15:25;;;;;;;;;;;;;;;;;;348022;28;850;-80
2021/10/23 01:15:36;;;;;;;;;;;;;;;;;;348641;28;971;-79
2021/10/23 01:15:46;;;;;;;;;;;;;;;;;;348699;28;1035;-77
2021/10/23 01:16:12;;;;;;;;;;;;;;;;;;348671;28;909;-78
2021/10/23 01:16:22;;;;;;;;;;;;;;;;;;348667;28;924;-80
2021/10/23 01:16:33;;;;;;;;;;;;;;;;;;347298;28;997;-79
2021/10/23 01:16:43;;;;;;;;;;;;;;;;;;345884;28;921;-79
2021/10/23 01:16:54;;;;;;;;;;;;;;;;;;343234;28;1299;-78
2021/10/23 01:17:20;;;;;;;;;;;;;;;;;;343211;28;985;-80
2021/10/23 01:17:34;;;;;;;;;;;;;;;;;;345900;28;802;-78
2021/10/23 01:18:10;;;;;;;;;;;;;;;;;;345820;28;1383;-78
2021/10/23 01:18:20;;;;;;;;;;;;;;;;;;345960;28;842;-78
2021/10/23 01:19:12;;;;;;;;;;;;;;;;;;345961;28;953;-80
2021/10/23 01:19:23;;;;;;;;;;;;;;;;;;345757;28;981;-79
2021/10/23 01:19:33;;;;;;;;;;;;;;;;;;345739;28;1300;-79
2021/10/23 01:20:12;;;;;;;;;;;;;;;;;;345821;28;1476;-80
2021/10/23 01:20:23;;;;;;;;;;;;;;;;;;345870;28;1475;-79
2021/10/23 01:20:33;;;;;;;;;;;;;;;;;;346057;28;821;-80
2021/10/23 01:20:59;;;;;;;;;;;;;;;;;;345844;28;1214;-80
2021/10/23 01:21:09;;;;;;;;;;;;;;;;;;343252;28;1470;-79
2021/10/23 01:21:20;;;;;;;;;;;;;;;;;;342980;28;1571;-79
2021/10/23 01:21:31;;;;;;;;;;;;;;;;;;343161;28;1366;-79
2021/10/23 01:21:42;;;;;;;;;;;;;;;;;;345875;28;1028;-80
2021/10/23 01:22:34;;;;;;;;;;;;;;;;;;347195;28;1300;-80
2021/10/23 01:22:51;;;;;;;;;;;;;;;;;;347304;28;842;-79
2021/10/23 01:23:17;;;;;;;;;;;;;;;;;;347336;28;790;-78
2021/10/23 01:23:27;;;;;;;;;;;;;;;;;;346688;28;1048;-80
2021/10/23 01:23:37;;;;;;;;;;;;;;;;;;346626;28;874;-80
2021/10/23 01:23:48;;;;;;;;;;;;;;;;;;347107;28;1538;-78
2021/10/23 01:23:58;;;;;;;;;;;;;;;;;;347245;28;791;-78
2021/10/23 01:24:08;;;;;;;;;;;;;;;;;;348650;28;1075;-79
2021/10/23 01:24:19;;;;;;;;;;;;;;;;;;347324;28;895;-79
2021/10/23 01:24:45;;;;;;;;;;;;;;;;;;343288;28;1471;-80
2021/10/23 01:25:11;;;;;;;;;;;;;;;;;;345985;28;862;-78
2021/10/23 01:25:22;;;;;;;;;;;;;;;;;;345942;28;858;-79
2021/10/23 01:25:34;;;;;;;;;;;;;;;;;;344577;28;920;-79
2021/10/23 01:25:44;;;;;;;;;;;;;;;;;;345934;28;933;-79
2021/10/23 01:25:54;;;;;;;;;;;;;;;;;;345890;28;900;-79
2021/10/23 01:26:20;;;;;;;;;;;;;;;;;;345814;28;1626;-80
2021/10/23 01:26:30;;;;;;;;;;;;;;;;;;345855;28;834;-79
2021/10/23 01:26:41;;;;;;;;;;;;;;;;;;345866;28;1444;-79
2021/10/23 01:26:51;;;;;;;;;;;;;;;;;;343264;28;1377;-78
2021/10/23 01:27:17;;;;;;;;;;;;;;;;;;347100;28;1315;-79
2021/10/23 01:27:33;;;;;;;;;;;;;;;;;;347303;28;940;-80
2021/10/23 01:27:59;;;;;;;;;;;;;;;;;;347347;28;786;-80
2021/10/23 01:28:09;;;;;;;;;;;;;;;;;;344505;28;938;-80
2021/10/23 01:28:20;;;;;;;;;;;;;;;;;;347178;28;1523;-80
2021/10/23 01:28:30;;;;;;;;;;;;;;;;;;347273;28;1035;-79
2021/10/23 01:28:40;;;;;;;;;;;;;;;;;;344631;28;864;-80
2021/10/23 01:29:06;;;;;;;;;;;;;;;;;;344607;28;984;-79
2021/10/23 01:29:17;;;;;;;;;;;;;;;;;;344557;28;818;-79
2021/10/23 01:29:27;;;;;;;;;;;;;;;;;;345924;28;928;-79
2021/10/23 01:29:49;;;;;;;;;;;;;;;;;;345973;28;933;-79
2021/10/23 01:30:00;;;;;;;;;;;;;;;;;;345967;28;834;-79
2021/10/23 01:30:10;;;;;;;;;;;;;;;;;;345927;28;984;-79
2021/10/23 01:30:23;;;;;;;;;;;;;;;;;;344433;28;997;-80
2021/10/23 01:30:33;;;;;;;;;;;;;;;;;;344883;28;937;-80
2021/10/23 01:30:44;;;;;;;;;;;;;;;;;;345986;28;932;-79
2021/10/23 01:30:55;;;;;;;;;;;;;;;;;;343195;28;953;-77
2021/10/23 01:31:05;;;;;;;;;;;;;;;;;;343233;28;989;-80
2021/10/23 01:31:16;;;;;;;;;;;;;;;;;;345950;28;909;-80
2021/10/23 01:31:27;;;;;;;;;;;;;;;;;;345761;28;913;-79
2021/10/23 01:31:37;;;;;;;;;;;;;;;;;;345782;28;912;-79
2021/10/23 01:31:48;;;;;;;;;;;;;;;;;;348452;28;1402;-80
2021/10/23 01:32:14;;;;;;;;;;;;;;;;;;347293;28;968;-79
2021/10/23 01:32:24;;;;;;;;;;;;;;;;;;345980;28;1456;-79
2021/10/23 01:32:35;;;;;;;;;;;;;;;;;;345844;28;1548;-79
2021/10/23 01:32:45;;;;;;;;;;;;;;;;;;347324;28;976;-76
2021/10/23 01:33:21;;;;;;;;;;;;;;;;;;343192;28;992;-79
2021/10/23 01:33:33;;;;;;;;;;;;;;;;;;343171;28;1336;-79
2021/10/23 01:33:43;;;;;;;;;;;;;;;;;;345914;28;814;-80
2021/10/23 01:33:53;;;;;;;;;;;;;;;;;;341902;29;795;-79
2021/10/23 01:34:13;;;;;;;;;;;;;;;;;;341937;29;1037;-80
2021/10/23 01:34:24;;;;;;;;;;;;;;;;;;345898;28;1090;-78
2021/10/23 01:34:35;;;;;;;;;;;;;;;;;;345931;28;984;-80
2021/10/23 01:34:45;;;;;;;;;;;;;;;;;;347067;28;1357;-79
2021/10/23 01:34:55;;;;;;;;;;;;;;;;;;345778;28;913;-78
2021/10/23 01:35:06;;;;;;;;;;;;;;;;;;345895;28;1144;-79
2021/10/23 01:35:16;;;;;;;;;;;;;;;;;;347256;28;909;-79
2021/10/23 01:35:27;;;;;;;;;;;;;;;;;;347316;28;826;-79
2021/10/23 01:35:39;;;;;;;;;;;;;;;;;;348573;28;1319;-79
2021/10/23 01:35:49;;;;;;;;;;;;;;;;;;348676;28;968;-80
2021/10/23 01:36:35;;;;;;;;;;;;;;;;;;345727;28;976;-77
2021/10/23 01:36:46;;;;;;;;;;;;;;;;;;345837;28;845;-79
2021/10/23 01:36:58;;;;;;;;;;;;;;;;;;347201;28;1598;-79
2021/10/23 01:37:09;;;;;;;;;;;;;;;;;;344325;28;1341;-80
2021/10/23 01:37:19;;;;;;;;;;;;;;;;;;345859;28;1317;-78
2021/10/23 01:37:36;;;;;;;;;;;;;;;;;;345941;28;790;-79
2021/10/23 01:38:25;;;;;;;;;;;;;;;;;;344496;28;1195;-79
2021/10/23 01:38:35;;;;;;;;;;;;;;;;;;344513;28;925;-79
2021/10/23 01:38:46;;;;;;;;;;;;;;;;;;344503;28;1455;-80
2021/10/23 01:38:56;;;;;;;;;;;;;;;;;;345635;28;1337;-79
2021/10/23 01:39:22;;;;;;;;;;;;;;;;;;345962;28;827;-79
2021/10/23 01:39:33;;;;;;;;;;;;;;;;;;345920;28;885;-78
2021/10/23 01:39:43;;;;;;;;;;;;;;;;;;344586;28;972;-78
2021/10/23 01:39:53;;;;;;;;;;;;;;;;;;344502;28;1464;-79
2021/10/23 01:40:05;;;;;;;;;;;;;;;;;;345934;28;1064;-79
2021/10/23 01:40:19;;;;;;;;;;;;;;;;;;345856;28;997;-79
2021/10/23 01:40:32;;;;;;;;;;;;;;;;;;345889;28;905;-80
2021/10/23 01:40:43;;;;;;;;;;;;;;;;;;345925;28;814;-79
2021/10/23 01:40:53;;;;;;;;;;;;;;;;;;345948;28;1043;-80
2021/10/23 01:41:07;;;;;;;;;;;;;;;;;;345902;28;972;-80
2021/10/23 01:41:17;;;;;;;;;;;;;;;;;;343237;28;763;-79
2021/10/23 01:41:28;;;;;;;;;;;;;;;;;;343156;28;843;-77
2021/10/23 01:41:54;;;;;;;;;;;;;;;;;;341664;28;1297;-78
2021/10/23 01:42:04;;;;;;;;;;;;;;;;;;343019;28;988;-77
2021/10/23 01:42:15;;;;;;;;;;;;;;;;;;343097;28;1466;-79
2021/10/23 01:43:06;;;;;;;;;;;;;;;;;;347487;28;826;-79
2021/10/23 01:43:16;;;;;;;;;;;;;;;;;;347085;28;1451;-80
2021/10/23 01:44:50;;;;;;;;;;;;;;;;;;345844;28;1020;-78
2021/10/23 01:45:01;;;;;;;;;;;;;;;;;;345847;28;1445;-80
2021/10/23 01:45:11;;;;;;;;;;;;;;;;;;345643;28;1276;-79
2021/10/23 01:46:03;;;;;;;;;;;;;;;;;;344556;28;981;-80
2021/10/23 01:46:13;;;;;;;;;;;;;;;;;;343218;28;906;-79
2021/10/23 01:46:24;;;;;;;;;;;;;;;;;;344586;28;838;-80
2021/10/23 01:46:34;;;;;;;;;;;;;;;;;;345873;28;873;-79
2021/10/23 01:46:54;;;;;;;;;;;;;;;;;;348538;28;865;-79
2021/10/23 01:47:06;;;;;;;;;;;;;;;;;;348658;28;900;-78
2021/10/23 01:47:42;;;;;;;;;;;;;;;;;;344566;28;864;-79
2021/10/23 01:48:07;;;;;;;;;;;;;;;;;;344570;28;826;-78
2021/10/23 01:48:18;;;;;;;;;;;;;;;;;;347247;28;925;-76
2021/10/23 01:49:09;;;;;;;;;;;;;;;;;;345060;28;835;-77
2021/10/23 01:49:20;;;;;;;;;;;;;;;;;;344844;28;931;-78
2021/10/23 01:50:24;;;;;;;;;;;;;;;;;;343133;28;1242;-78
2021/10/23 01:50:35;;;;;;;;;;;;;;;;;;345872;28;774;-79
2021/10/23 01:50:45;;;;;;;;;;;;;;;;;;345950;28;837;-79
2021/10/23 01:51:11;;;;;;;;;;;;;;;;;;345899;28;988;-80
2021/10/23 01:51:21;;;;;;;;;;;;;;;;;;347163;28;1055;-79
2021/10/23 01:51:38;;;;;;;;;;;;;;;;;;348448;28;811;-79
2021/10/23 01:51:49;;;;;;;;;;;;;;;;;;348512;28;807;-78
2021/10/23 01:52:00;;;;;;;;;;;;;;;;;;348487;28;877;-80
2021/10/23 01:52:25;;;;;;;;;;;;;;;;;;347657;28;1377;-80
2021/10/23 01:52:37;;;;;;;;;;;;;;;;;;344256;28;1349;-81
2021/10/23 01:52:48;;;;;;;;;;;;;;;;;;345436;28;1440;-78
2021/10/23 01:52:58;;;;;;;;;;;;;;;;;;346704;28;1968;-77
2021/10/23 01:53:09;;;;;;;;;;;;;;;;;;347089;28;893;-78
2021/10/23 01:53:22;;;;;;;;;;;;;;;;;;344508;28;1522;-78
2021/10/23 01:53:48;;;;;;;;;;;;;;;;;;345897;28;841;-78
2021/10/23 01:54:14;;;;;;;;;;;;;;;;;;345927;28;1001;-78
2021/10/23 01:54:24;;;;;;;;;;;;;;;;;;345791;28;1366;-77
2021/10/23 01:54:50;;;;;;;;;;;;;;;;;;347182;28;1367;-76
2021/10/23 01:55:01;;;;;;;;;;;;;;;;;;344512;28;1232;-78
2021/10/23 01:55:11;;;;;;;;;;;;;;;;;;343122;28;1327;-77
2021/10/23 01:55:22;;;;;;;;;;;;;;;;;;344384;28;1376;-76